Terminal Aerodrome Forecast
Issued by NWS

Home | Current Version | Previous Version | Text Only | Print | Product List | Glossary On
Versions: 1 2 3 4 5 6 7 8 9 10 11 12 13
000
FTUS41 KCAR 030911 AAA
TAFPQI
TAF AMD
KPQI 030911Z 0309/0406 31009KT P6SM SKC
     FM031100 32012KT P6SM SKC
     FM032200 18004KT P6SM OVC050
     FM040300 19006KT 5SM -SN OVC030
      AMD LTD TO CLD VIS AND WIND=

USA.gov is the U.S. government's official web portal to all federal, state and local government web resources and services.